sensor_id;sensor_type;location;lat;lon;timestamp;P1;durP1;ratioP1;P2;durP2;ratioP2
23449;SDS011;11897;45.438;12.128;2024-01-30T00:00:32;64.03;;;26.30;;
23449;SDS011;11897;45.438;12.128;2024-01-30T00:02:59;64.10;;;28.63;;
23449;SDS011;11897;45.438;12.128;2024-01-30T00:05:26;96.77;;;31.40;;
23449;SDS011;11897;45.438;12.128;2024-01-30T00:07:52;91.83;;;30.63;;
23449;SDS011;11897;45.438;12.128;2024-01-30T00:10:20;69.23;;;29.90;;
23449;SDS011;11897;45.438;12.128;2024-01-30T00:12:47;77.03;;;28.83;;
23449;SDS011;11897;45.438;12.128;2024-01-30T00:15:14;65.67;;;28.77;;
23449;SDS011;11897;45.438;12.128;2024-01-30T00:17:41;77.97;;;28.07;;
23449;SDS011;11897;45.438;12.128;2024-01-30T00:20:08;73.93;;;28.43;;
23449;SDS011;11897;45.438;12.128;2024-01-30T00:22:35;105.30;;;30.10;;
23449;SDS011;11897;45.438;12.128;2024-01-30T00:25:01;77.50;;;27.47;;
23449;SDS011;11897;45.438;12.128;2024-01-30T00:27:29;49.17;;;25.90;;
23449;SDS011;11897;45.438;12.128;2024-01-30T00:29:56;75.70;;;28.70;;
23449;SDS011;11897;45.438;12.128;2024-01-30T00:32:23;77.50;;;29.20;;
23449;SDS011;11897;45.438;12.128;2024-01-30T00:34:49;80.33;;;30.83;;
23449;SDS011;11897;45.438;12.128;2024-01-30T00:37:16;71.13;;;29.87;;
23449;SDS011;11897;45.438;12.128;2024-01-30T00:39:43;74.53;;;30.53;;
23449;SDS011;11897;45.438;12.128;2024-01-30T00:42:09;84.33;;;31.83;;
23449;SDS011;11897;45.438;12.128;2024-01-30T00:44:38;84.10;;;30.37;;
23449;SDS011;11897;45.438;12.128;2024-01-30T00:47:05;97.00;;;33.87;;
23449;SDS011;11897;45.438;12.128;2024-01-30T00:49:31;94.40;;;32.77;;
23449;SDS011;11897;45.438;12.128;2024-01-30T00:51:58;90.47;;;31.60;;
23449;SDS011;11897;45.438;12.128;2024-01-30T00:54:25;79.83;;;27.53;;
23449;SDS011;11897;45.438;12.128;2024-01-30T00:56:51;67.97;;;27.80;;
23449;SDS011;11897;45.438;12.128;2024-01-30T00:59:18;45.30;;;26.17;;
23449;SDS011;11897;45.438;12.128;2024-01-30T01:01:46;63.67;;;25.47;;
23449;SDS011;11897;45.438;12.128;2024-01-30T01:04:13;56.20;;;24.07;;
23449;SDS011;11897;45.438;12.128;2024-01-30T01:06:40;57.87;;;25.40;;
23449;SDS011;11897;45.438;12.128;2024-01-30T01:09:09;58.97;;;24.27;;
23449;SDS011;11897;45.438;12.128;2024-01-30T01:11:36;65.07;;;24.93;;
23449;SDS011;11897;45.438;12.128;2024-01-30T01:14:03;58.97;;;24.53;;
23449;SDS011;11897;45.438;12.128;2024-01-30T01:16:29;41.27;;;22.57;;
23449;SDS011;11897;45.438;12.128;2024-01-30T01:18:57;60.40;;;23.97;;
23449;SDS011;11897;45.438;12.128;2024-01-30T01:21:25;45.83;;;23.87;;
23449;SDS011;11897;45.438;12.128;2024-01-30T01:23:52;43.13;;;23.23;;
23449;SDS011;11897;45.438;12.128;2024-01-30T01:26:18;50.50;;;21.90;;
23449;SDS011;11897;45.438;12.128;2024-01-30T01:28:45;38.27;;;22.07;;
23449;SDS011;11897;45.438;12.128;2024-01-30T01:31:12;45.37;;;22.73;;
23449;SDS011;11897;45.438;12.128;2024-01-30T01:33:38;44.70;;;22.90;;
23449;SDS011;11897;45.438;12.128;2024-01-30T01:36:07;50.63;;;24.10;;
23449;SDS011;11897;45.438;12.128;2024-01-30T01:38:33;54.00;;;23.57;;
23449;SDS011;11897;45.438;12.128;2024-01-30T01:41:00;42.43;;;22.50;;
23449;SDS011;11897;45.438;12.128;2024-01-30T01:43:27;40.17;;;23.20;;
23449;SDS011;11897;45.438;12.128;2024-01-30T01:45:53;37.70;;;21.50;;
23449;SDS011;11897;45.438;12.128;2024-01-30T01:48:20;47.07;;;22.77;;
23449;SDS011;11897;45.438;12.128;2024-01-30T01:50:47;40.10;;;22.63;;
23449;SDS011;11897;45.438;12.128;2024-01-30T01:53:15;38.50;;;22.97;;
23449;SDS011;11897;45.438;12.128;2024-01-30T01:55:45;41.23;;;22.57;;
23449;SDS011;11897;45.438;12.128;2024-01-30T01:58:13;37.67;;;20.73;;
23449;SDS011;11897;45.438;12.128;2024-01-30T02:00:40;52.53;;;20.60;;
23449;SDS011;11897;45.438;12.128;2024-01-30T02:03:08;47.37;;;21.80;;
23449;SDS011;11897;45.438;12.128;2024-01-30T02:05:36;40.87;;;22.93;;
23449;SDS011;11897;45.438;12.128;2024-01-30T02:08:03;37.87;;;20.93;;
23449;SDS011;11897;45.438;12.128;2024-01-30T02:10:31;53.13;;;22.10;;
23449;SDS011;11897;45.438;12.128;2024-01-30T02:12:58;39.70;;;22.07;;
23449;SDS011;11897;45.438;12.128;2024-01-30T02:15:25;36.40;;;20.47;;
23449;SDS011;11897;45.438;12.128;2024-01-30T02:17:52;35.50;;;21.40;;
23449;SDS011;11897;45.438;12.128;2024-01-30T02:20:18;32.00;;;20.17;;
23449;SDS011;11897;45.438;12.128;2024-01-30T02:22:48;35.50;;;20.60;;
23449;SDS011;11897;45.438;12.128;2024-01-30T02:25:15;35.30;;;20.93;;
23449;SDS011;11897;45.438;12.128;2024-01-30T02:27:42;35.87;;;19.70;;
23449;SDS011;11897;45.438;12.128;2024-01-30T02:30:09;35.73;;;20.27;;
23449;SDS011;11897;45.438;12.128;2024-01-30T02:32:36;34.80;;;21.13;;
23449;SDS011;11897;45.438;12.128;2024-01-30T02:35:03;32.07;;;20.77;;
23449;SDS011;11897;45.438;12.128;2024-01-30T02:37:30;32.77;;;20.70;;
23449;SDS011;11897;45.438;12.128;2024-01-30T02:39:58;36.83;;;19.97;;
23449;SDS011;11897;45.438;12.128;2024-01-30T02:42:25;35.03;;;22.10;;
23449;SDS011;11897;45.438;12.128;2024-01-30T02:44:52;28.00;;;18.80;;
23449;SDS011;11897;45.438;12.128;2024-01-30T02:47:18;32.70;;;19.17;;
23449;SDS011;11897;45.438;12.128;2024-01-30T02:49:45;33.47;;;20.50;;
23449;SDS011;11897;45.438;12.128;2024-01-30T02:52:11;30.27;;;19.70;;
23449;SDS011;11897;45.438;12.128;2024-01-30T02:54:37;30.93;;;19.63;;
23449;SDS011;11897;45.438;12.128;2024-01-30T02:57:05;32.33;;;19.73;;
23449;SDS011;11897;45.438;12.128;2024-01-30T02:59:32;31.90;;;19.53;;
23449;SDS011;11897;45.438;12.128;2024-01-30T03:02:01;30.40;;;19.63;;
23449;SDS011;11897;45.438;12.128;2024-01-30T03:04:27;27.43;;;19.00;;
23449;SDS011;11897;45.438;12.128;2024-01-30T03:06:55;31.77;;;20.40;;
23449;SDS011;11897;45.438;12.128;2024-01-30T03:09:22;32.20;;;19.20;;
23449;SDS011;11897;45.438;12.128;2024-01-30T03:11:48;30.83;;;18.57;;
23449;SDS011;11897;45.438;12.128;2024-01-30T03:14:16;27.87;;;17.67;;
23449;SDS011;11897;45.438;12.128;2024-01-30T03:16:43;29.00;;;18.83;;
23449;SDS011;11897;45.438;12.128;2024-01-30T03:19:10;28.10;;;18.77;;
23449;SDS011;11897;45.438;12.128;2024-01-30T03:21:37;29.63;;;17.53;;
23449;SDS011;11897;45.438;12.128;2024-01-30T03:24:03;27.13;;;17.93;;
23449;SDS011;11897;45.438;12.128;2024-01-30T03:26:30;30.40;;;18.13;;
23449;SDS011;11897;45.438;12.128;2024-01-30T03:28:57;26.60;;;16.90;;
23449;SDS011;11897;45.438;12.128;2024-01-30T03:31:25;28.00;;;17.63;;
23449;SDS011;11897;45.438;12.128;2024-01-30T03:33:52;30.97;;;18.50;;
23449;SDS011;11897;45.438;12.128;2024-01-30T03:36:19;29.03;;;18.33;;
23449;SDS011;11897;45.438;12.128;2024-01-30T03:38:46;25.13;;;15.90;;
23449;SDS011;11897;45.438;12.128;2024-01-30T03:41:13;26.90;;;17.30;;
23449;SDS011;11897;45.438;12.128;2024-01-30T03:43:40;24.47;;;15.87;;
23449;SDS011;11897;45.438;12.128;2024-01-30T03:46:06;26.30;;;17.00;;
23449;SDS011;11897;45.438;12.128;2024-01-30T03:48:35;27.30;;;16.33;;
23449;SDS011;11897;45.438;12.128;2024-01-30T03:51:01;26.77;;;16.87;;
23449;SDS011;11897;45.438;12.128;2024-01-30T03:53:28;26.60;;;16.73;;
23449;SDS011;11897;45.438;12.128;2024-01-30T03:55:55;26.13;;;16.53;;
23449;SDS011;11897;45.438;12.128;2024-01-30T03:58:22;25.33;;;16.07;;
23449;SDS011;11897;45.438;12.128;2024-01-30T04:00:49;23.10;;;15.80;;
23449;SDS011;11897;45.438;12.128;2024-01-30T04:03:16;25.67;;;16.40;;
23449;SDS011;11897;45.438;12.128;2024-01-30T04:05:43;25.33;;;16.47;;
23449;SDS011;11897;45.438;12.128;2024-01-30T04:08:09;25.47;;;16.63;;
23449;SDS011;11897;45.438;12.128;2024-01-30T04:10:36;23.20;;;15.63;;
23449;SDS011;11897;45.438;12.128;2024-01-30T04:13:03;26.53;;;16.77;;
23449;SDS011;11897;45.438;12.128;2024-01-30T04:15:30;25.00;;;15.87;;
23449;SDS011;11897;45.438;12.128;2024-01-30T04:17:57;25.90;;;15.33;;
23449;SDS011;11897;45.438;12.128;2024-01-30T04:20:24;23.40;;;14.83;;
23449;SDS011;11897;45.438;12.128;2024-01-30T04:22:53;23.87;;;16.00;;
23449;SDS011;11897;45.438;12.128;2024-01-30T04:25:19;25.97;;;15.30;;
23449;SDS011;11897;45.438;12.128;2024-01-30T04:27:46;24.80;;;15.20;;
23449;SDS011;11897;45.438;12.128;2024-01-30T04:30:13;23.10;;;15.30;;
23449;SDS011;11897;45.438;12.128;2024-01-30T04:32:40;28.77;;;17.63;;
23449;SDS011;11897;45.438;12.128;2024-01-30T04:35:06;30.77;;;18.60;;
23449;SDS011;11897;45.438;12.128;2024-01-30T04:37:33;32.57;;;18.70;;
23449;SDS011;11897;45.438;12.128;2024-01-30T04:40:02;37.40;;;20.17;;
23449;SDS011;11897;45.438;12.128;2024-01-30T04:42:29;37.60;;;20.97;;
23449;SDS011;11897;45.438;12.128;2024-01-30T04:44:56;33.70;;;19.43;;
23449;SDS011;11897;45.438;12.128;2024-01-30T04:47:22;30.70;;;19.33;;
23449;SDS011;11897;45.438;12.128;2024-01-30T04:49:51;31.50;;;19.77;;
23449;SDS011;11897;45.438;12.128;2024-01-30T04:52:17;30.93;;;19.30;;
23449;SDS011;11897;45.438;12.128;2024-01-30T04:54:44;29.23;;;18.20;;
23449;SDS011;11897;45.438;12.128;2024-01-30T04:57:12;32.00;;;18.97;;
23449;SDS011;11897;45.438;12.128;2024-01-30T04:59:39;29.87;;;18.53;;
23449;SDS011;11897;45.438;12.128;2024-01-30T05:02:06;29.30;;;18.23;;
23449;SDS011;11897;45.438;12.128;2024-01-30T05:04:32;32.77;;;18.67;;
23449;SDS011;11897;45.438;12.128;2024-01-30T05:06:59;32.87;;;18.87;;
23449;SDS011;11897;45.438;12.128;2024-01-30T05:09:25;29.77;;;17.17;;
23449;SDS011;11897;45.438;12.128;2024-01-30T05:11:52;30.23;;;18.67;;
23449;SDS011;11897;45.438;12.128;2024-01-30T05:14:20;33.00;;;19.00;;
23449;SDS011;11897;45.438;12.128;2024-01-30T05:16:47;32.43;;;19.23;;
23449;SDS011;11897;45.438;12.128;2024-01-30T05:19:14;30.23;;;18.53;;
23449;SDS011;11897;45.438;12.128;2024-01-30T05:21:41;29.03;;;17.50;;
23449;SDS011;11897;45.438;12.128;2024-01-30T05:24:07;30.60;;;17.83;;
23449;SDS011;11897;45.438;12.128;2024-01-30T05:26:35;29.43;;;18.43;;
23449;SDS011;11897;45.438;12.128;2024-01-30T05:29:02;27.13;;;16.53;;
23449;SDS011;11897;45.438;12.128;2024-01-30T05:31:30;26.17;;;16.53;;
23449;SDS011;11897;45.438;12.128;2024-01-30T05:33:57;28.07;;;17.30;;
23449;SDS011;11897;45.438;12.128;2024-01-30T05:36:23;25.60;;;16.63;;
23449;SDS011;11897;45.438;12.128;2024-01-30T05:38:50;25.83;;;16.47;;
23449;SDS011;11897;45.438;12.128;2024-01-30T05:41:17;23.93;;;16.07;;
23449;SDS011;11897;45.438;12.128;2024-01-30T05:43:44;24.87;;;15.70;;
23449;SDS011;11897;45.438;12.128;2024-01-30T05:46:10;25.03;;;16.10;;
23449;SDS011;11897;45.438;12.128;2024-01-30T05:48:38;25.93;;;15.33;;
23449;SDS011;11897;45.438;12.128;2024-01-30T05:51:06;25.97;;;16.20;;
23449;SDS011;11897;45.438;12.128;2024-01-30T05:53:33;24.80;;;16.37;;
23449;SDS011;11897;45.438;12.128;2024-01-30T05:56:01;27.83;;;17.03;;
23449;SDS011;11897;45.438;12.128;2024-01-30T05:58:27;29.57;;;16.73;;
23449;SDS011;11897;45.438;12.128;2024-01-30T06:00:54;24.73;;;16.40;;
23449;SDS011;11897;45.438;12.128;2024-01-30T06:03:21;27.00;;;17.87;;
23449;SDS011;11897;45.438;12.128;2024-01-30T06:05:49;29.00;;;18.53;;
23449;SDS011;11897;45.438;12.128;2024-01-30T06:08:15;28.17;;;17.27;;
23449;SDS011;11897;45.438;12.128;2024-01-30T06:10:42;26.60;;;17.37;;
23449;SDS011;11897;45.438;12.128;2024-01-30T06:13:09;24.67;;;15.57;;
23449;SDS011;11897;45.438;12.128;2024-01-30T06:15:36;23.80;;;15.80;;
23449;SDS011;11897;45.438;12.128;2024-01-30T06:18:03;26.43;;;15.97;;
23449;SDS011;11897;45.438;12.128;2024-01-30T06:20:29;23.07;;;16.00;;
23449;SDS011;11897;45.438;12.128;2024-01-30T06:22:58;26.03;;;16.53;;
23449;SDS011;11897;45.438;12.128;2024-01-30T06:25:24;28.13;;;18.00;;
23449;SDS011;11897;45.438;12.128;2024-01-30T06:27:51;32.43;;;17.60;;
23449;SDS011;11897;45.438;12.128;2024-01-30T06:30:18;35.97;;;18.00;;
23449;SDS011;11897;45.438;12.128;2024-01-30T06:32:45;28.43;;;17.77;;
23449;SDS011;11897;45.438;12.128;2024-01-30T06:35:11;28.43;;;16.63;;
23449;SDS011;11897;45.438;12.128;2024-01-30T06:37:38;28.80;;;18.23;;
23449;SDS011;11897;45.438;12.128;2024-01-30T06:40:07;27.90;;;18.23;;
23449;SDS011;11897;45.438;12.128;2024-01-30T06:42:34;29.97;;;17.67;;
23449;SDS011;11897;45.438;12.128;2024-01-30T06:45:00;27.17;;;17.10;;
23449;SDS011;11897;45.438;12.128;2024-01-30T06:47:27;25.90;;;16.80;;
23449;SDS011;11897;45.438;12.128;2024-01-30T06:49:56;26.73;;;16.83;;
23449;SDS011;11897;45.438;12.128;2024-01-30T06:52:23;26.13;;;16.93;;
23449;SDS011;11897;45.438;12.128;2024-01-30T06:54:49;23.13;;;15.30;;
23449;SDS011;11897;45.438;12.128;2024-01-30T06:57:17;22.47;;;16.13;;
23449;SDS011;11897;45.438;12.128;2024-01-30T06:59:44;19.40;;;14.70;;
23449;SDS011;11897;45.438;12.128;2024-01-30T07:02:11;25.00;;;15.77;;
23449;SDS011;11897;45.438;12.128;2024-01-30T07:04:38;24.60;;;16.17;;
23449;SDS011;11897;45.438;12.128;2024-01-30T07:07:04;25.43;;;16.50;;
23449;SDS011;11897;45.438;12.128;2024-01-30T07:09:37;25.30;;;15.73;;
23449;SDS011;11897;45.438;12.128;2024-01-30T07:12:04;24.63;;;16.73;;
23449;SDS011;11897;45.438;12.128;2024-01-30T07:14:32;24.13;;;16.03;;
23449;SDS011;11897;45.438;12.128;2024-01-30T07:16:59;25.47;;;15.93;;
23449;SDS011;11897;45.438;12.128;2024-01-30T07:19:26;22.10;;;15.17;;
23449;SDS011;11897;45.438;12.128;2024-01-30T07:21:52;22.50;;;14.63;;
23449;SDS011;11897;45.438;12.128;2024-01-30T07:24:19;22.70;;;14.67;;
23449;SDS011;11897;45.438;12.128;2024-01-30T07:26:46;22.33;;;14.20;;
23449;SDS011;11897;45.438;12.128;2024-01-30T07:29:12;21.43;;;14.97;;
23449;SDS011;11897;45.438;12.128;2024-01-30T07:31:40;21.93;;;15.03;;
23449;SDS011;11897;45.438;12.128;2024-01-30T07:34:07;21.63;;;15.10;;
23449;SDS011;11897;45.438;12.128;2024-01-30T07:36:34;21.77;;;13.90;;
23449;SDS011;11897;45.438;12.128;2024-01-30T07:39:00;22.07;;;13.03;;
23449;SDS011;11897;45.438;12.128;2024-01-30T07:41:27;22.23;;;13.77;;
23449;SDS011;11897;45.438;12.128;2024-01-30T07:43:54;20.37;;;13.60;;
23449;SDS011;11897;45.438;12.128;2024-01-30T07:46:21;20.60;;;13.27;;
23449;SDS011;11897;45.438;12.128;2024-01-30T07:48:49;18.90;;;13.17;;
23449;SDS011;11897;45.438;12.128;2024-01-30T07:51:16;19.73;;;12.83;;
23449;SDS011;11897;45.438;12.128;2024-01-30T07:53:42;21.83;;;14.13;;
23449;SDS011;11897;45.438;12.128;2024-01-30T07:56:19;19.10;;;13.23;;
23449;SDS011;11897;45.438;12.128;2024-01-30T07:58:45;21.07;;;13.90;;
23449;SDS011;11897;45.438;12.128;2024-01-30T08:01:12;19.07;;;12.83;;
23449;SDS011;11897;45.438;12.128;2024-01-30T08:03:39;20.03;;;12.43;;
23449;SDS011;11897;45.438;12.128;2024-01-30T08:06:08;17.43;;;12.27;;
23449;SDS011;11897;45.438;12.128;2024-01-30T08:08:35;26.57;;;13.50;;
23449;SDS011;11897;45.438;12.128;2024-01-30T08:11:03;26.90;;;13.30;;
23449;SDS011;11897;45.438;12.128;2024-01-30T08:13:29;18.63;;;12.63;;
23449;SDS011;11897;45.438;12.128;2024-01-30T08:15:56;21.43;;;13.40;;
23449;SDS011;11897;45.438;12.128;2024-01-30T08:18:23;18.73;;;12.83;;
23449;SDS011;11897;45.438;12.128;2024-01-30T08:20:49;18.73;;;13.40;;
23449;SDS011;11897;45.438;12.128;2024-01-30T08:23:17;24.77;;;12.53;;
23449;SDS011;11897;45.438;12.128;2024-01-30T08:25:44;23.33;;;13.83;;
23449;SDS011;11897;45.438;12.128;2024-01-30T08:28:11;23.80;;;13.80;;
23449;SDS011;11897;45.438;12.128;2024-01-30T08:30:37;22.40;;;14.17;;
23449;SDS011;11897;45.438;12.128;2024-01-30T08:33:05;38.43;;;19.30;;
23449;SDS011;11897;45.438;12.128;2024-01-30T08:35:31;25.03;;;14.97;;
23449;SDS011;11897;45.438;12.128;2024-01-30T08:37:59;22.97;;;14.87;;
23449;SDS011;11897;45.438;12.128;2024-01-30T08:40:27;22.13;;;13.47;;
23449;SDS011;11897;45.438;12.128;2024-01-30T08:42:54;18.83;;;12.50;;
23449;SDS011;11897;45.438;12.128;2024-01-30T08:45:20;25.33;;;12.77;;
23449;SDS011;11897;45.438;12.128;2024-01-30T08:47:47;24.07;;;14.90;;
23449;SDS011;11897;45.438;12.128;2024-01-30T08:50:14;21.13;;;12.47;;
23449;SDS011;11897;45.438;12.128;2024-01-30T08:52:42;21.37;;;13.07;;
23449;SDS011;11897;45.438;12.128;2024-01-30T08:55:09;22.40;;;13.17;;
23449;SDS011;11897;45.438;12.128;2024-01-30T08:57:37;24.47;;;14.30;;
23449;SDS011;11897;45.438;12.128;2024-01-30T09:00:05;21.37;;;13.83;;
23449;SDS011;11897;45.438;12.128;2024-01-30T09:02:35;21.60;;;13.43;;
23449;SDS011;11897;45.438;12.128;2024-01-30T09:05:02;23.57;;;13.93;;
23449;SDS011;11897;45.438;12.128;2024-01-30T09:07:29;21.07;;;13.20;;
23449;SDS011;11897;45.438;12.128;2024-01-30T09:09:55;22.17;;;14.27;;
23449;SDS011;11897;45.438;12.128;2024-01-30T09:12:23;24.77;;;14.47;;
23449;SDS011;11897;45.438;12.128;2024-01-30T09:14:50;22.13;;;14.67;;
23449;SDS011;11897;45.438;12.128;2024-01-30T09:17:18;24.83;;;15.57;;
23449;SDS011;11897;45.438;12.128;2024-01-30T09:19:45;27.97;;;15.37;;
23449;SDS011;11897;45.438;12.128;2024-01-30T09:22:12;25.10;;;15.87;;
23449;SDS011;11897;45.438;12.128;2024-01-30T09:24:39;25.83;;;15.87;;
23449;SDS011;11897;45.438;12.128;2024-01-30T09:27:06;28.80;;;17.53;;
23449;SDS011;11897;45.438;12.128;2024-01-30T09:29:33;26.90;;;16.33;;
23449;SDS011;11897;45.438;12.128;2024-01-30T09:32:03;26.33;;;16.20;;
23449;SDS011;11897;45.438;12.128;2024-01-30T09:34:30;22.83;;;15.17;;
23449;SDS011;11897;45.438;12.128;2024-01-30T09:36:58;23.20;;;14.83;;
23449;SDS011;11897;45.438;12.128;2024-01-30T09:39:26;24.57;;;15.20;;
23449;SDS011;11897;45.438;12.128;2024-01-30T09:41:54;23.40;;;15.40;;
23449;SDS011;11897;45.438;12.128;2024-01-30T09:44:22;24.70;;;14.93;;
23449;SDS011;11897;45.438;12.128;2024-01-30T09:46:50;23.50;;;14.07;;
23449;SDS011;11897;45.438;12.128;2024-01-30T09:49:18;25.17;;;13.60;;
23449;SDS011;11897;45.438;12.128;2024-01-30T09:51:46;20.60;;;14.20;;
23449;SDS011;11897;45.438;12.128;2024-01-30T09:54:24;20.87;;;13.13;;
23449;SDS011;11897;45.438;12.128;2024-01-30T09:56:51;20.07;;;14.13;;
23449;SDS011;11897;45.438;12.128;2024-01-30T09:59:17;20.70;;;13.00;;
23449;SDS011;11897;45.438;12.128;2024-01-30T10:01:44;19.80;;;14.07;;
23449;SDS011;11897;45.438;12.128;2024-01-30T10:04:12;21.47;;;13.40;;
23449;SDS011;11897;45.438;12.128;2024-01-30T10:06:40;23.70;;;14.23;;
23449;SDS011;11897;45.438;12.128;2024-01-30T10:09:07;18.47;;;13.03;;
23449;SDS011;11897;45.438;12.128;2024-01-30T10:11:33;21.27;;;15.20;;
23449;SDS011;11897;45.438;12.128;2024-01-30T10:14:00;20.83;;;14.27;;
23449;SDS011;11897;45.438;12.128;2024-01-30T10:16:27;22.43;;;14.97;;
23449;SDS011;11897;45.438;12.128;2024-01-30T10:18:54;23.20;;;15.20;;
23449;SDS011;11897;45.438;12.128;2024-01-30T10:21:21;23.87;;;15.07;;
23449;SDS011;11897;45.438;12.128;2024-01-30T10:23:50;41.70;;;16.43;;
23449;SDS011;11897;45.438;12.128;2024-01-30T10:26:17;23.07;;;15.97;;
23449;SDS011;11897;45.438;12.128;2024-01-30T10:28:44;25.87;;;16.20;;
23449;SDS011;11897;45.438;12.128;2024-01-30T10:31:10;25.20;;;17.07;;
23449;SDS011;11897;45.438;12.128;2024-01-30T10:33:39;29.10;;;17.90;;
23449;SDS011;11897;45.438;12.128;2024-01-30T10:36:09;29.97;;;18.03;;
23449;SDS011;11897;45.438;12.128;2024-01-30T10:38:37;30.60;;;17.83;;
23449;SDS011;11897;45.438;12.128;2024-01-30T10:41:06;30.57;;;17.53;;
23449;SDS011;11897;45.438;12.128;2024-01-30T10:43:35;26.83;;;16.90;;
23449;SDS011;11897;45.438;12.128;2024-01-30T10:46:06;35.53;;;17.60;;
23449;SDS011;11897;45.438;12.128;2024-01-30T10:48:33;27.63;;;17.13;;
23449;SDS011;11897;45.438;12.128;2024-01-30T10:51:08;29.80;;;16.80;;
23449;SDS011;11897;45.438;12.128;2024-01-30T10:53:36;31.20;;;18.20;;
23449;SDS011;11897;45.438;12.128;2024-01-30T10:56:06;32.43;;;18.80;;
23449;SDS011;11897;45.438;12.128;2024-01-30T10:58:33;29.57;;;17.23;;
23449;SDS011;11897;45.438;12.128;2024-01-30T11:00:59;35.10;;;18.10;;
23449;SDS011;11897;45.438;12.128;2024-01-30T11:03:26;30.23;;;18.13;;
23449;SDS011;11897;45.438;12.128;2024-01-30T11:05:53;26.97;;;16.67;;
23449;SDS011;11897;45.438;12.128;2024-01-30T11:08:24;27.70;;;16.63;;
23449;SDS011;11897;45.438;12.128;2024-01-30T11:10:55;26.07;;;15.63;;
23449;SDS011;11897;45.438;12.128;2024-01-30T11:13:30;31.13;;;17.63;;
23449;SDS011;11897;45.438;12.128;2024-01-30T11:16:00;24.70;;;14.17;;
23449;SDS011;11897;45.438;12.128;2024-01-30T11:18:28;23.80;;;14.60;;
23449;SDS011;11897;45.438;12.128;2024-01-30T11:20:56;25.67;;;15.13;;
23449;SDS011;11897;45.438;12.128;2024-01-30T11:23:23;22.13;;;14.60;;
23449;SDS011;11897;45.438;12.128;2024-01-30T11:25:54;21.90;;;13.73;;
23449;SDS011;11897;45.438;12.128;2024-01-30T11:28:21;26.10;;;14.23;;
23449;SDS011;11897;45.438;12.128;2024-01-30T11:30:49;29.50;;;14.67;;
23449;SDS011;11897;45.438;12.128;2024-01-30T11:33:27;23.40;;;14.70;;
23449;SDS011;11897;45.438;12.128;2024-01-30T11:35:56;20.83;;;13.70;;
23449;SDS011;11897;45.438;12.128;2024-01-30T11:38:23;25.13;;;13.70;;
23449;SDS011;11897;45.438;12.128;2024-01-30T11:40:52;22.03;;;13.97;;
23449;SDS011;11897;45.438;12.128;2024-01-30T11:43:19;23.90;;;14.63;;
23449;SDS011;11897;45.438;12.128;2024-01-30T11:45:46;20.43;;;13.57;;
23449;SDS011;11897;45.438;12.128;2024-01-30T11:48:14;22.90;;;13.70;;
23449;SDS011;11897;45.438;12.128;2024-01-30T11:50:40;23.83;;;13.93;;
23449;SDS011;11897;45.438;12.128;2024-01-30T11:53:07;23.60;;;13.73;;
23449;SDS011;11897;45.438;12.128;2024-01-30T11:55:34;23.73;;;13.80;;
23449;SDS011;11897;45.438;12.128;2024-01-30T11:58:02;19.93;;;13.10;;
23449;SDS011;11897;45.438;12.128;2024-01-30T12:00:30;18.07;;;13.20;;
23449;SDS011;11897;45.438;12.128;2024-01-30T12:02:58;19.20;;;13.00;;
23449;SDS011;11897;45.438;12.128;2024-01-30T12:05:27;22.33;;;13.93;;
23449;SDS011;11897;45.438;12.128;2024-01-30T12:07:54;21.27;;;14.30;;
23449;SDS011;11897;45.438;12.128;2024-01-30T12:10:24;25.30;;;15.07;;
23449;SDS011;11897;45.438;12.128;2024-01-30T12:12:51;24.97;;;14.00;;
23449;SDS011;11897;45.438;12.128;2024-01-30T12:15:19;19.97;;;13.20;;
23449;SDS011;11897;45.438;12.128;2024-01-30T12:17:47;21.57;;;14.23;;
23449;SDS011;11897;45.438;12.128;2024-01-30T12:20:15;23.83;;;14.03;;
23449;SDS011;11897;45.438;12.128;2024-01-30T12:22:43;21.00;;;13.27;;
23449;SDS011;11897;45.438;12.128;2024-01-30T12:25:11;24.77;;;14.00;;
23449;SDS011;11897;45.438;12.128;2024-01-30T12:27:38;24.23;;;14.37;;
23449;SDS011;11897;45.438;12.128;2024-01-30T12:30:09;21.50;;;14.30;;
23449;SDS011;11897;45.438;12.128;2024-01-30T12:32:39;21.73;;;13.33;;
23449;SDS011;11897;45.438;12.128;2024-01-30T12:35:09;23.17;;;14.00;;
23449;SDS011;11897;45.438;12.128;2024-01-30T12:37:36;20.53;;;13.33;;
23449;SDS011;11897;45.438;12.128;2024-01-30T12:40:05;24.90;;;14.23;;
23449;SDS011;11897;45.438;12.128;2024-01-30T12:42:32;21.23;;;13.37;;
23449;SDS011;11897;45.438;12.128;2024-01-30T12:44:59;25.37;;;14.67;;
23449;SDS011;11897;45.438;12.128;2024-01-30T12:47:26;27.47;;;15.03;;
23449;SDS011;11897;45.438;12.128;2024-01-30T12:49:53;22.47;;;13.57;;
23449;SDS011;11897;45.438;12.128;2024-01-30T12:52:20;25.73;;;14.70;;
23449;SDS011;11897;45.438;12.128;2024-01-30T12:54:47;22.37;;;13.43;;
23449;SDS011;11897;45.438;12.128;2024-01-30T12:57:15;21.27;;;14.40;;
23449;SDS011;11897;45.438;12.128;2024-01-30T12:59:42;22.30;;;13.93;;
23449;SDS011;11897;45.438;12.128;2024-01-30T13:02:08;31.30;;;14.33;;
23449;SDS011;11897;45.438;12.128;2024-01-30T13:04:35;22.13;;;14.80;;
23449;SDS011;11897;45.438;12.128;2024-01-30T13:07:02;23.67;;;14.07;;
23449;SDS011;11897;45.438;12.128;2024-01-30T13:09:29;19.73;;;13.30;;
23449;SDS011;11897;45.438;12.128;2024-01-30T13:11:56;19.13;;;13.27;;
23449;SDS011;11897;45.438;12.128;2024-01-30T13:14:24;22.13;;;14.20;;
23449;SDS011;11897;45.438;12.128;2024-01-30T13:16:51;23.87;;;13.47;;
23449;SDS011;11897;45.438;12.128;2024-01-30T13:19:18;20.63;;;14.13;;
23449;SDS011;11897;45.438;12.128;2024-01-30T13:21:44;22.80;;;14.30;;
23449;SDS011;11897;45.438;12.128;2024-01-30T13:24:11;28.37;;;15.53;;
23449;SDS011;11897;45.438;12.128;2024-01-30T13:26:38;24.80;;;15.80;;
23449;SDS011;11897;45.438;12.128;2024-01-30T13:29:05;25.10;;;15.37;;
23449;SDS011;11897;45.438;12.128;2024-01-30T13:31:33;24.93;;;14.97;;
23449;SDS011;11897;45.438;12.128;2024-01-30T13:33:59;26.30;;;15.03;;
23449;SDS011;11897;45.438;12.128;2024-01-30T13:36:26;27.67;;;15.43;;
23449;SDS011;11897;45.438;12.128;2024-01-30T13:38:53;24.03;;;14.60;;
23449;SDS011;11897;45.438;12.128;2024-01-30T13:41:19;22.60;;;14.40;;
23449;SDS011;11897;45.438;12.128;2024-01-30T13:43:48;28.47;;;16.07;;
23449;SDS011;11897;45.438;12.128;2024-01-30T13:46:14;25.20;;;14.73;;
23449;SDS011;11897;45.438;12.128;2024-01-30T13:48:42;27.97;;;16.17;;
23449;SDS011;11897;45.438;12.128;2024-01-30T13:51:09;24.60;;;15.57;;
23449;SDS011;11897;45.438;12.128;2024-01-30T13:53:36;25.67;;;15.90;;
23449;SDS011;11897;45.438;12.128;2024-01-30T13:56:03;25.23;;;16.10;;
23449;SDS011;11897;45.438;12.128;2024-01-30T13:58:32;23.87;;;15.27;;
23449;SDS011;11897;45.438;12.128;2024-01-30T14:01:00;22.63;;;15.07;;
23449;SDS011;11897;45.438;12.128;2024-01-30T14:03:28;24.47;;;15.23;;
23449;SDS011;11897;45.438;12.128;2024-01-30T14:05:57;24.63;;;15.83;;
23449;SDS011;11897;45.438;12.128;2024-01-30T14:08:23;22.90;;;14.90;;